Terminal Aerodrome Forecast
Issued by NWS Sioux Falls, SD

Home | Current Version | Previous Version | Graphics & Text | Print | Product List | Glossary Off
Versions: 1 2 3 4 5 6 7 8 9 10 11 12

278
FTUS43 KFSD 250521
TAFFSD
TAF
KFSD 250521Z 2506/2606 VRB03KT P6SM FEW250
     FM251700 17007KT P6SM SKC=

USA.gov is the U.S. government's official web portal to all federal, state and local government web resources and services.